Monday, December 17, 2018, 9:50 AM GMT
Back to Local

CWQV, Puinte Claveau

Location: , , Canada Lat: 48.267
Local Time: 9:50 AM GMT ( 9:50 GMT) Lon: -70.117
Time Zone: GMT Elev: 0 ft

Show me the last for .
Show Coded

Time T Td Feel RH Dir Speed Gust Alt SLP Vis Weather Sky Remarks
2018-12-17 09:00 28 24 16 84 90° 16 - - - 0 Peak wind: 19 mph (17 kts) from 90° at 46 min
2018-12-17 08:00 31 26 19 81 80° 13 18 - - 0 Peak wind: 20 mph (18 kts) from 90° at 20 min
2018-12-17 07:00 29 24 19 78 60° 13 - - - 0 Peak wind: 21 mph (19 kts) from 60° at 12 min
2018-12-17 06:00 28 24 16 83 80° 16 - - - 0 Peak wind: 20 mph (18 kts) from 80° at 27 min
2018-12-17 05:00 28 23 18 81 70° 10 - - - 0 None
2018-12-17 04:00 28 23 16 81 80° 13 18 - - 0 Peak wind: 19 mph (17 kts) from 50° at 00 min
2018-12-17 03:00 30 24 18 77 60° 12 18 - - 0 None
2018-12-17 02:00 27 23 18 84 80° 10 - - - 0 None
2018-12-17 01:00 24 22 20 92 120° 3 - - - 0 None
2018-12-17 00:00 25 22 21 89 80° 3 - - - 0 None
2018-12-16 23:00 27 24 23 88 50° 3 - - - 0 None
2018-12-16 22:00 27 23 - 86 - Calm - - - 0 None
2018-12-16 21:00 29 26 - 88 - Calm - - - 0 None
2018-12-16 20:00 29 24 - 81 100° 2 - - - 0 None
2018-12-16 19:00 31 26 27 80 260° 3 - - - 0 None
2018-12-16 18:00 31 26 26 82 280° 5 - - - 0 None
2018-12-16 17:00 31 26 28 80 280° 3 - - - 0 None
2018-12-16 16:00 31 24 25 74 270° 7 - - - 0 None
2018-12-16 15:00 31 26 23 81 270° 9 - - - 0 None
2018-12-16 14:00 32 26 - 79 - Calm - - - 0 None
2018-12-16 13:00 31 25 - 79 50° 1 - - - 0 None
2018-12-16 12:00 31 24 - 74 - Calm - - - 0 None
2018-12-16 11:00 31 26 - 81 350° 1 - - - 0 None
2018-12-16 10:00 31 24 - 73 300° 2 - - - 0 None

Support USWX by starting your Amazon purchase here.